Time;durP1;ratioP1;P1;durP2;ratioP2;P2;SDS_P1;SDS_P2;PMS_P1;PMS_P2;Temp;Humidity;BMP_temperature;BMP_pressure;BME280_temperature;BME280_humidity;BME280_pressure;Samples;Min_cycle;Max_cycle;Signal;HPM_P1;HPM_P2
2022/11/24 00:01:51;;;;;;;21.65;6.35;;;;;;;5.37;100.00;100135.88;6150897;23;20005;-87
2022/11/24 00:04:16;;;;;;;24.35;6.55;;;;;;;5.37;100.00;100153.50;6150685;23;20006;-88
2022/11/24 00:06:41;;;;;;;25.50;6.30;;;;;;;5.19;100.00;100120.81;6122269;23;20013;-88
2022/11/24 00:09:07;;;;;;;22.83;6.20;;;;;;;5.24;100.00;100132.88;6148999;23;20005;-88
2022/11/24 00:11:34;;;;;;;25.45;6.50;;;;;;;5.22;100.00;100140.00;6150266;23;20304;-88
2022/11/24 00:14:00;;;;;;;24.48;6.00;;;;;;;5.23;100.00;100146.13;6153957;23;20421;-89
2022/11/24 00:16:30;;;;;;;26.30;5.68;;;;;;;5.20;100.00;100130.44;6152586;23;20070;-89
2022/11/24 00:18:58;;;;;;;26.13;6.80;;;;;;;5.15;100.00;100129.75;6121265;23;20013;-90
2022/11/24 00:21:24;;;;;;;23.52;6.07;;;;;;;5.30;100.00;100159.94;6150658;23;20005;-88
2022/11/24 00:23:51;;;;;;;24.55;5.50;;;;;;;5.27;100.00;100163.56;6150730;23;20012;-89
2022/11/24 00:26:22;;;;;;;23.13;5.38;;;;;;;5.31;100.00;100166.91;6122675;23;20013;-89
2022/11/24 00:28:48;;;;;;;24.45;6.00;;;;;;;5.31;100.00;100161.63;6151984;23;20005;-89
2022/11/24 00:31:16;;;;;;;21.08;5.20;;;;;;;5.23;100.00;100162.81;6152401;23;20009;-88
2022/11/24 00:33:42;;;;;;;19.17;5.40;;;;;;;5.25;100.00;100160.97;6152513;23;20006;-88
2022/11/24 00:36:07;;;;;;;28.33;6.38;;;;;;;5.21;100.00;100159.38;6150470;23;20009;-89
2022/11/24 00:38:33;;;;;;;20.63;5.63;;;;;;;5.25;100.00;100168.88;6153278;23;20167;-90
2022/11/24 00:41:01;;;;;;;21.52;5.80;;;;;;;5.25;100.00;100175.94;6155010;23;20008;-89
2022/11/24 00:43:27;;;;;;;22.27;6.03;;;;;;;5.21;100.00;100167.28;6154924;23;20021;-89
2022/11/24 00:45:52;;;;;;;21.77;5.78;;;;;;;5.14;100.00;100164.94;6152827;23;20356;-89
2022/11/24 00:48:17;;;;;;;22.40;6.38;;;;;;;5.14;100.00;100167.59;6151980;23;20014;-89
2022/11/24 00:50:43;;;;;;;22.67;5.95;;;;;;;5.13;100.00;100171.16;6154438;23;20013;-89
2022/11/24 00:53:08;;;;;;;26.02;6.55;;;;;;;5.16;100.00;100171.03;6154790;23;20012;-89
2022/11/24 00:55:33;;;;;;;24.08;6.05;;;;;;;5.18;100.00;100172.72;6154808;23;19997;-89
2022/11/24 00:57:59;;;;;;;23.05;5.75;;;;;;;5.15;100.00;100162.28;6153392;23;20005;-88
2022/11/24 01:00:25;;;;;;;23.55;5.82;;;;;;;5.31;100.00;100178.34;6151260;23;20056;-89
2022/11/24 01:02:51;;;;;;;25.58;5.95;;;;;;;5.32;100.00;100174.78;6151759;23;20013;-89
2022/11/24 01:05:17;;;;;;;21.77;5.20;;;;;;;5.32;100.00;100176.56;6151925;23;20020;-89
2022/11/24 01:07:42;;;;;;;23.05;5.45;;;;;;;5.32;100.00;100174.78;6150162;23;20088;-89
2022/11/24 01:10:08;;;;;;;20.35;5.85;;;;;;;5.29;100.00;100185.47;6126835;23;20501;-89
2022/11/24 01:12:34;;;;;;;19.60;5.10;;;;;;;5.29;100.00;100189.88;6153230;23;20009;-89
2022/11/24 01:14:59;;;;;;;26.40;6.47;;;;;;;5.32;100.00;100197.69;6153252;23;20001;-88
2022/11/24 01:17:25;;;;;;;21.35;4.95;;;;;;;5.28;100.00;100204.84;6126476;23;20013;-88
2022/11/24 01:19:51;;;;;;;23.30;5.85;;;;;;;5.32;100.00;100195.91;6158207;23;20009;-89
2022/11/24 01:22:16;;;;;;;23.20;5.90;;;;;;;5.29;100.00;100188.09;6164181;23;20028;-89
2022/11/24 01:24:42;;;;;;;26.80;5.85;;;;;;;5.28;100.00;100196.09;6165511;23;20012;-88
2022/11/24 01:27:07;;;;;;;16.70;5.30;;;;;;;5.30;100.00;100191.59;6136759;23;20031;-90
2022/11/24 01:29:33;;;;;;;24.58;5.50;;;;;;;5.20;100.00;100186.69;6164255;23;20029;-88
2022/11/24 01:31:58;;;;;;;17.48;5.88;;;;;;;5.33;100.00;100202.88;6139824;23;20025;-87
2022/11/24 01:34:23;;;;;;;21.65;5.43;;;;;;;5.26;100.00;100193.50;6162569;23;20047;-89
2022/11/24 01:36:49;;;;;;;26.77;5.07;;;;;;;5.31;100.00;100207.38;6162994;23;20013;-90
2022/11/24 01:39:14;;;;;;;19.35;5.20;;;;;;;5.27;100.00;100210.19;6159333;23;20009;-89
2022/11/24 01:41:40;;;;;;;17.67;5.00;;;;;;;5.26;100.00;100214.59;6160566;23;20478;-89
2022/11/24 01:44:25;;;;;;;17.95;5.15;;;;;;;5.18;100.00;100220.19;6131825;23;20005;-89
2022/11/24 01:46:57;;;;;;;21.95;5.70;;;;;;;5.19;100.00;100221.06;6130883;23;20010;-89
2022/11/24 01:49:43;;;;;;;22.48;6.18;;;;;;;5.17;100.00;100225.50;6159794;23;20467;-89
2022/11/24 01:52:20;;;;;;;19.48;5.90;;;;;;;5.20;100.00;100225.41;6158935;23;20028;-89
2022/11/24 01:54:53;;;;;;;24.63;6.30;;;;;;;5.14;100.00;100220.34;6160926;23;20462;-89
2022/11/24 01:57:28;;;;;;;27.02;6.40;;;;;;;5.09;100.00;100209.97;6172768;23;20063;-88
2022/11/24 01:59:58;;;;;;;20.55;5.93;;;;;;;5.23;100.00;100233.22;6156352;23;20015;-88
2022/11/24 02:02:28;;;;;;;23.45;6.05;;;;;;;5.20;100.00;100231.53;6128140;23;20321;-88
2022/11/24 02:04:57;;;;;;;20.80;5.45;;;;;;;5.21;100.00;100227.13;6152769;23;20064;-88
2022/11/24 02:07:23;;;;;;;18.63;5.25;;;;;;;5.26;100.00;100238.34;6152211;23;20088;-88
2022/11/24 02:09:54;;;;;;;22.98;5.93;;;;;;;5.32;100.00;100245.19;6155285;23;20412;-89
2022/11/24 02:12:22;;;;;;;22.67;5.95;;;;;;;5.23;100.00;100243.75;6156743;23;20032;-88
2022/11/24 02:14:47;;;;;;;19.40;5.90;;;;;;;5.23;100.00;100241.13;6153056;23;20033;-88
2022/11/24 02:17:13;;;;;;;24.98;6.18;;;;;;;5.19;100.00;100242.16;6129152;23;20033;-89
2022/11/24 02:19:38;;;;;;;21.13;5.38;;;;;;;5.22;100.00;100247.28;6154925;23;20053;-88
2022/11/24 02:22:04;;;;;;;25.13;5.40;;;;;;;5.10;100.00;100227.53;6153415;23;20092;-89
2022/11/24 02:24:50;;;;;;;24.50;6.03;;;;;;;5.22;100.00;100253.47;6154304;23;20428;-90
2022/11/24 02:27:17;;;;;;;28.30;6.50;;;;;;;5.26;100.00;100243.63;6154865;23;20125;-89
2022/11/24 02:29:42;;;;;;;22.33;6.15;;;;;;;5.24;100.00;100245.47;6153999;23;20002;-89
2022/11/24 02:32:10;;;;;;;27.65;6.07;;;;;;;5.23;100.00;100238.47;6155633;23;20005;-89
2022/11/24 02:34:35;;;;;;;28.25;6.70;;;;;;;5.32;100.00;100247.81;6154820;23;20340;-89
2022/11/24 02:37:01;;;;;;;21.00;5.70;;;;;;;5.29;100.00;100240.00;6152902;23;20008;-89
2022/11/24 02:39:26;;;;;;;19.40;5.20;;;;;;;5.34;100.00;100248.59;6127178;23;20013;-89
2022/11/24 02:41:56;;;;;;;32.97;8.63;;;;;;;5.50;100.00;100257.66;6152270;23;20009;-89
2022/11/24 02:44:26;;;;;;;27.58;6.93;;;;;;;5.58;100.00;100265.28;6151007;23;20455;-89
2022/11/24 02:47:05;;;;;;;25.48;5.93;;;;;;;5.63;100.00;100265.94;6151607;23;19997;-89
2022/11/24 02:49:31;;;;;;;22.35;5.47;;;;;;;5.63;100.00;100252.75;6154307;23;20006;-88
2022/11/24 02:51:58;;;;;;;19.90;5.53;;;;;;;5.75;100.00;100262.81;6150090;23;20020;-89
2022/11/24 02:54:23;;;;;;;29.38;6.03;;;;;;;5.81;100.00;100262.59;6124756;23;20029;-89
2022/11/24 02:56:48;;;;;;;23.08;6.13;;;;;;;5.77;100.00;100250.44;6151046;23;20334;-89
2022/11/24 02:59:14;;;;;;;22.65;5.95;;;;;;;5.90;100.00;100269.28;6154790;23;20079;-89
2022/11/24 03:01:39;;;;;;;23.10;5.82;;;;;;;5.95;100.00;100264.69;6152628;23;20002;-86
2022/11/24 03:04:04;;;;;;;21.70;6.45;;;;;;;5.97;100.00;100271.59;6150505;23;20006;-89
2022/11/24 03:06:30;;;;;;;25.67;5.32;;;;;;;6.02;100.00;100271.44;6126633;23;20063;-88
2022/11/24 03:08:55;;;;;;;26.10;5.88;;;;;;;6.01;100.00;100274.13;6152875;23;20010;-88
2022/11/24 03:11:21;;;;;;;21.90;6.07;;;;;;;6.04;100.00;100269.59;6151957;23;20005;-88
2022/11/24 03:13:46;;;;;;;21.35;5.82;;;;;;;6.04;100.00;100274.00;6127611;23;20419;-87
2022/11/24 03:16:11;;;;;;;21.58;5.97;;;;;;;6.01;100.00;100275.00;6152037;23;20006;-88
2022/11/24 03:18:37;;;;;;;22.60;5.85;;;;;;;5.97;100.00;100276.03;6151614;23;20009;-87
2022/11/24 03:21:02;;;;;;;27.83;6.10;;;;;;;6.02;100.00;100289.06;6149559;23;20092;-87
2022/11/24 03:23:27;;;;;;;24.45;6.35;;;;;;;6.08;100.00;100287.03;6152940;23;20340;-89
2022/11/24 03:25:53;;;;;;;25.60;6.28;;;;;;;6.13;100.00;100284.19;6151074;23;20420;-89
2022/11/24 03:28:19;;;;;;;25.83;5.47;;;;;;;6.10;100.00;100285.16;6150643;23;20012;-88
2022/11/24 03:30:48;;;;;;;25.05;6.13;;;;;;;6.11;100.00;100279.00;6124344;23;20009;-88
2022/11/24 03:33:13;;;;;;;26.10;6.25;;;;;;;6.19;100.00;100289.25;6150884;23;20006;-89
2022/11/24 03:35:38;;;;;;;24.25;6.50;;;;;;;6.19;100.00;100299.81;6149868;23;20005;-88
2022/11/24 03:38:03;;;;;;;29.08;6.10;;;;;;;6.19;100.00;100290.09;6126125;23;20001;-89
2022/11/24 03:40:29;;;;;;;27.17;6.57;;;;;;;6.19;100.00;100297.16;6153425;23;20087;-90
2022/11/24 03:42:54;;;;;;;21.25;5.80;;;;;;;6.16;100.00;100294.66;6128338;23;20020;-89
2022/11/24 03:45:19;;;;;;;22.98;5.82;;;;;;;6.04;100.00;100279.28;6152205;23;20012;-88
2022/11/24 03:47:50;;;;;;;26.10;5.63;;;;;;;6.10;100.00;100295.75;6151004;23;20016;-87
2022/11/24 03:50:15;;;;;;;26.17;5.90;;;;;;;6.16;100.00;100290.22;6125701;23;20021;-88
2022/11/24 03:52:41;;;;;;;25.02;6.82;;;;;;;6.22;100.00;100294.38;6157500;23;20073;-89
2022/11/24 03:55:06;;;;;;;25.08;6.30;;;;;;;6.18;100.00;100293.63;6155463;23;19997;-88
2022/11/24 03:57:31;;;;;;;26.08;6.75;;;;;;;6.27;100.00;100296.81;6159003;23;20006;-89
2022/11/24 03:59:57;;;;;;;31.83;7.13;;;;;;;6.32;100.00;100297.53;6133404;23;20005;-89
2022/11/24 04:02:23;;;;;;;29.98;6.53;;;;;;;6.35;100.00;100300.00;6163216;23;20178;-89
2022/11/24 04:04:50;;;;;;;20.33;5.53;;;;;;;6.38;100.00;100306.03;6159273;23;20005;-88
2022/11/24 04:07:16;;;;;;;27.27;6.78;;;;;;;6.32;100.00;100292.22;6152044;23;20428;-89
2022/11/24 04:09:41;;;;;;;23.92;6.40;;;;;;;6.32;100.00;100301.00;6152046;23;20009;-90
2022/11/24 04:14:51;;;;;;;29.90;7.07;;;;;;;6.13;100.00;100310.63;6152510;23;20502;-89
2022/11/24 04:17:17;;;;;;;29.73;7.15;;;;;;;6.10;100.00;100318.66;6124615;23;20010;-89
2022/11/24 04:19:42;;;;;;;22.88;6.18;;;;;;;6.07;100.00;100318.81;6125052;23;20012;-88
2022/11/24 04:22:07;;;;;;;25.05;6.63;;;;;;;6.08;100.00;100326.66;6155016;23;20006;-90
2022/11/24 04:24:33;;;;;;;19.38;6.03;;;;;;;6.07;100.00;100326.72;6151518;23;20514;-89
2022/11/24 04:26:58;;;;;;;28.63;6.55;;;;;;;6.05;100.00;100323.28;6149360;23;20459;-87
2022/11/24 04:29:23;;;;;;;32.20;6.63;;;;;;;6.10;100.00;100330.09;6150255;23;20013;-89
2022/11/24 04:31:48;;;;;;;27.83;7.05;;;;;;;6.06;100.00;100320.59;6151893;23;20417;-88
2022/11/24 04:34:14;;;;;;;29.73;6.75;;;;;;;6.14;100.00;100338.75;6151974;23;20002;-90
2022/11/24 04:36:39;;;;;;;26.52;6.20;;;;;;;6.08;100.00;100333.72;6150855;23;20004;-90
2022/11/24 04:39:05;;;;;;;27.65;6.60;;;;;;;6.16;100.00;100348.34;6124912;23;20579;-90
2022/11/24 04:41:30;;;;;;;29.65;6.40;;;;;;;6.16;100.00;100344.84;6150799;23;20084;-90
2022/11/24 04:43:55;;;;;;;23.58;6.45;;;;;;;6.14;100.00;100349.31;6154795;23;20061;-89
2022/11/24 04:46:21;;;;;;;26.23;5.85;;;;;;;6.10;100.00;100348.59;6153606;23;20006;-89
2022/11/24 04:48:46;;;;;;;27.48;6.22;;;;;;;6.03;100.00;100341.00;6127404;23;20335;-90
2022/11/24 04:51:13;;;;;;;29.27;6.70;;;;;;;6.13;100.00;100358.19;6152899;23;20076;-90
2022/11/24 04:53:38;;;;;;;27.85;6.78;;;;;;;6.11;100.00;100354.75;6153688;23;20013;-89
2022/11/24 04:56:05;;;;;;;26.45;7.07;;;;;;;6.07;100.00;100348.72;6151907;23;20006;-89
2022/11/24 04:58:30;;;;;;;31.30;6.78;;;;;;;6.12;100.00;100362.59;6127122;23;20463;-89
2022/11/24 05:00:55;;;;;;;26.92;6.28;;;;;;;6.11;100.00;100365.31;6154204;23;20001;-89
2022/11/24 05:03:20;;;;;;;32.30;6.50;;;;;;;6.10;100.00;100374.16;6129963;23;20060;-89
2022/11/24 05:05:46;;;;;;;26.15;6.30;;;;;;;6.10;100.00;100366.22;6157180;23;20033;-88
2022/11/24 05:08:11;;;;;;;33.00;6.85;;;;;;;6.05;100.00;100365.56;6158535;23;20006;-90
2022/11/24 05:10:36;;;;;;;31.60;6.97;;;;;;;5.97;100.00;100363.22;6153882;23;20041;-89
2022/11/24 05:13:05;;;;;;;38.90;7.43;;;;;;;5.94;100.00;100364.22;6154531;23;20084;-88
2022/11/24 05:15:31;;;;;;;30.10;7.25;;;;;;;5.92;100.00;100358.09;6154580;23;20080;-89
2022/11/24 05:17:56;;;;;;;30.00;6.85;;;;;;;5.98;100.00;100373.72;6154178;23;20006;-88
2022/11/24 05:20:22;;;;;;;32.40;7.50;;;;;;;5.96;100.00;100366.78;6151473;23;20001;-88
2022/11/24 05:22:47;;;;;;;28.45;6.38;;;;;;;6.02;100.00;100377.13;6152825;23;20060;-88
2022/11/24 05:25:13;;;;;;;40.67;8.13;;;;;;;6.02;100.00;100384.16;6124965;23;20010;-88
2022/11/24 05:27:39;;;;;;;28.23;6.90;;;;;;;6.03;100.00;100372.69;6152080;23;20328;-89
2022/11/24 05:30:05;;;;;;;32.03;7.70;;;;;;;5.97;100.00;100365.84;6154775;23;20176;-90
2022/11/24 05:32:30;;;;;;;30.20;6.78;;;;;;;5.99;100.00;100380.72;6155208;23;20096;-89
2022/11/24 05:34:56;;;;;;;32.08;6.75;;;;;;;6.02;100.00;100373.59;6152082;23;20040;-90
2022/11/24 05:37:24;;;;;;;28.20;6.45;;;;;;;6.00;100.00;100384.22;6126556;23;20450;-90
2022/11/24 05:39:49;;;;;;;30.23;7.03;;;;;;;6.02;100.00;100397.38;6154373;23;20078;-89
2022/11/24 05:44:58;;;;;;;28.17;6.82;;;;;;;5.96;100.00;100388.75;6153753;23;20020;-90
2022/11/24 05:47:24;;;;;;;32.38;6.78;;;;;;;5.99;100.00;100388.66;6162169;23;20001;-89
2022/11/24 05:49:50;;;;;;;31.77;7.03;;;;;;;6.03;100.00;100396.47;6177302;23;20073;-89
2022/11/24 05:52:16;;;;;;;29.05;5.50;;;;;;;6.02;100.00;100400.91;6163255;23;20044;-90
2022/11/24 05:54:41;;;;;;;21.65;5.57;;;;;;;6.04;100.00;100403.47;6133567;23;20598;-88
2022/11/24 05:57:06;;;;;;;17.88;4.72;;;;;;;6.06;100.00;100410.44;6175980;23;20020;-89
2022/11/24 05:59:32;;;;;;;16.10;4.78;;;;;;;6.08;100.00;100415.63;6166847;23;20002;-89
2022/11/24 06:01:57;;;;;;;22.52;5.05;;;;;;;6.08;100.00;100410.34;6156399;23;20002;-89
2022/11/24 06:04:23;;;;;;;20.42;5.13;;;;;;;6.12;100.00;100422.53;6152120;23;20033;-89
2022/11/24 06:06:48;;;;;;;16.65;4.10;;;;;;;6.10;100.00;100427.00;6154546;23;20450;-89
2022/11/24 06:09:13;;;;;;;16.05;3.90;;;;;;;6.14;100.00;100433.88;6158725;23;19990;-89
2022/11/24 06:11:39;;;;;;;15.02;3.58;;;;;;;6.05;100.00;100431.59;6153202;23;20010;-88
2022/11/24 06:14:04;;;;;;;15.60;4.00;;;;;;;6.09;100.00;100435.84;6123359;23;20005;-90
2022/11/24 06:16:29;;;;;;;12.70;3.78;;;;;;;6.12;100.00;100444.53;6152039;23;19997;-90
2022/11/24 06:18:54;;;;;;;14.48;3.22;;;;;;;6.17;100.00;100452.25;6153906;23;20012;-90
2022/11/24 06:21:20;;;;;;;12.40;3.53;;;;;;;6.25;100.00;100463.41;6128149;23;20129;-90
2022/11/24 06:23:48;;;;;;;12.73;3.40;;;;;;;6.28;100.00;100473.84;6160622;23;20032;-89
2022/11/24 06:26:14;;;;;;;14.13;3.58;;;;;;;6.28;100.00;100468.56;6158146;23;20001;-89
2022/11/24 06:28:39;;;;;;;12.02;3.20;;;;;;;6.29;100.00;100482.66;6159357;23;20017;-88
2022/11/24 06:31:06;;;;;;;10.27;3.08;;;;;;;6.30;100.00;100482.56;6162031;23;20040;-90
2022/11/24 06:33:35;;;;;;;9.75;3.03;;;;;;;6.29;100.00;100494.06;6151461;23;20009;-90
2022/11/24 06:36:03;;;;;;;9.75;3.17;;;;;;;6.26;100.00;100498.63;6151068;23;20057;-89
2022/11/24 06:38:29;;;;;;;7.97;2.80;;;;;;;6.21;100.00;100499.66;6152968;23;20037;-90
2022/11/24 06:40:58;;;;;;;14.05;3.50;;;;;;;6.19;100.00;100505.94;6155979;23;20424;-89
2022/11/24 06:43:26;;;;;;;8.23;2.90;;;;;;;6.18;100.00;100512.97;6153345;23;20000;-89
2022/11/24 06:45:51;;;;;;;10.50;2.63;;;;;;;6.18;100.00;100512.13;6155028;23;20013;-89
2022/11/24 06:48:16;;;;;;;8.55;2.85;;;;;;;6.19;100.00;100520.00;6154739;23;20077;-90
2022/11/24 06:50:42;;;;;;;9.52;2.90;;;;;;;6.20;100.00;100528.78;6153448;23;20017;-89
2022/11/24 06:53:07;;;;;;;10.60;2.55;;;;;;;6.19;100.00;100527.94;6153602;23;20014;-89
2022/11/24 06:55:32;;;;;;;6.22;2.50;;;;;;;6.23;100.00;100539.25;6154886;23;20077;-89
2022/11/24 06:57:58;;;;;;;6.22;2.72;;;;;;;6.18;100.00;100531.47;6154865;23;20092;-89
2022/11/24 07:00:23;;;;;;;10.45;2.83;;;;;;;6.25;100.00;100547.97;6155210;23;20013;-89
2022/11/24 07:02:48;;;;;;;8.07;3.13;;;;;;;6.20;100.00;100556.06;6125426;23;20041;-89
2022/11/24 07:05:13;;;;;;;9.93;2.97;;;;;;;6.09;100.00;100541.53;6148946;23;20029;-89
2022/11/24 07:07:39;;;;;;;7.57;2.10;;;;;;;6.03;100.00;100563.78;6149992;23;20450;-89
2022/11/24 07:10:05;;;;;;;9.93;2.60;;;;;;;5.96;100.00;100568.41;6153501;23;20017;-88
2022/11/24 07:12:34;;;;;;;7.32;2.22;;;;;;;5.96;100.00;100571.03;6127007;23;20673;-89
2022/11/24 07:14:59;;;;;;;9.35;2.50;;;;;;;5.92;100.00;100581.78;6153754;23;20439;-89
2022/11/24 07:17:24;;;;;;;7.75;2.53;;;;;;;5.93;100.00;100594.91;6128705;23;20013;-90
2022/11/24 07:19:50;;;;;;;7.47;2.75;;;;;;;5.87;100.00;100591.63;6126432;23;20001;-91
2022/11/24 07:22:15;;;;;;;9.27;2.83;;;;;;;5.89;100.00;100601.19;6152345;23;20013;-92
2022/11/24 07:24:40;;;;;;;9.27;2.30;;;;;;;5.96;100.00;100617.75;6150815;23;20009;-89
2022/11/24 07:27:05;;;;;;;8.80;2.83;;;;;;;5.99;100.00;100625.56;6127286;23;20335;-91
2022/11/24 07:29:31;;;;;;;7.50;2.33;;;;;;;5.97;100.00;100622.94;6130845;23;20079;-90
2022/11/24 07:31:56;;;;;;;10.35;3.22;;;;;;;6.04;100.00;100628.03;6155297;23;20009;-90
2022/11/24 07:34:21;;;;;;;13.13;2.92;;;;;;;6.07;100.00;100626.16;6127448;23;19997;-90
2022/11/24 07:36:46;;;;;;;8.27;2.58;;;;;;;6.09;100.00;100628.72;6153507;23;20031;-91
2022/11/24 07:39:12;;;;;;;8.07;2.22;;;;;;;6.07;100.00;100635.88;6125456;23;20469;-90
2022/11/24 07:41:37;;;;;;;6.35;3.15;;;;;;;6.01;100.00;100642.22;6126939;23;20599;-90
2022/11/24 07:44:02;;;;;;;9.35;2.58;;;;;;;5.94;100.00;100644.22;6152221;23;20005;-89
2022/11/24 07:46:28;;;;;;;6.35;2.47;;;;;;;5.86;100.00;100645.38;6125837;23;20117;-89
2022/11/24 07:48:53;;;;;;;7.15;2.63;;;;;;;5.80;100.00;100641.16;6153460;23;20075;-90
2022/11/24 07:51:18;;;;;;;5.35;2.55;;;;;;;5.75;100.00;100661.56;6154921;23;20017;-90
2022/11/24 07:53:44;;;;;;;9.98;2.63;;;;;;;5.65;100.00;100657.53;6151978;23;20005;-89
2022/11/24 07:56:09;;;;;;;11.40;3.80;;;;;;;5.69;100.00;100656.50;6153109;23;20025;-90
2022/11/24 07:58:36;;;;;;;10.43;3.20;;;;;;;5.71;100.00;100670.50;6151635;23;20005;-90
2022/11/24 08:01:14;;;;;;;8.00;3.10;;;;;;;5.70;100.00;100677.56;6153910;23;20010;-89
2022/11/24 08:03:40;;;;;;;8.85;2.90;;;;;;;5.60;100.00;100659.44;6152976;23;20005;-90
2022/11/24 08:06:06;;;;;;;10.00;2.70;;;;;;;5.66;100.00;100670.66;6124445;23;20020;-90
2022/11/24 08:08:34;;;;;;;8.07;2.53;;;;;;;5.62;100.00;100673.47;6151198;23;20385;-91
2022/11/24 08:11:04;;;;;;;9.48;2.50;;;;;;;5.69;100.00;100690.84;6126158;23;20002;-89
2022/11/24 08:13:30;;;;;;;6.57;2.85;;;;;;;5.68;100.00;100687.31;6151559;23;20025;-90
2022/11/24 08:15:55;;;;;;;10.85;2.67;;;;;;;5.69;100.00;100688.19;6146308;23;20014;-89
2022/11/24 08:18:23;;;;;;;7.32;2.75;;;;;;;5.61;100.00;100679.66;6146414;23;20006;-88
2022/11/24 08:20:48;;;;;;;8.40;2.83;;;;;;;5.57;100.00;100681.53;6151244;23;20033;-90
2022/11/24 08:23:13;;;;;;;15.57;5.53;;;;;;;5.70;100.00;100698.69;6148711;23;20067;-89
2022/11/24 08:25:39;;;;;;;13.88;4.70;;;;;;;5.68;100.00;100708.44;6149986;23;20365;-89
2022/11/24 08:28:04;;;;;;;10.95;3.47;;;;;;;5.72;100.00;100711.84;6121893;23;20005;-90
2022/11/24 08:30:30;;;;;;;11.82;3.67;;;;;;;5.62;100.00;100700.72;6151245;23;20037;-92
2022/11/24 08:32:58;;;;;;;8.43;3.22;;;;;;;5.76;100.00;100724.03;6152937;23;20011;-90
2022/11/24 08:35:23;;;;;;;9.68;3.20;;;;;;;5.68;100.00;100711.06;6170479;23;19994;-91
2022/11/24 08:37:49;;;;;;;11.02;3.28;;;;;;;5.74;100.00;100710.03;6149539;23;20020;-92
2022/11/24 08:40:14;;;;;;;9.88;3.78;;;;;;;5.82;100.00;100731.78;6176577;23;19997;-91
2022/11/24 08:42:40;;;;;;;13.20;3.70;;;;;;;5.80;100.00;100728.31;6170983;23;20009;-92
2022/11/24 08:45:06;;;;;;;14.82;4.30;;;;;;;5.84;100.00;100739.63;6172424;23;19993;-91
2022/11/24 08:47:31;;;;;;;16.42;5.57;;;;;;;5.78;100.00;100719.56;6177122;23;20010;-92
2022/11/24 08:49:56;;;;;;;13.38;4.18;;;;;;;5.90;100.00;100756.16;6177002;23;20009;-91
2022/11/24 08:52:21;;;;;;;10.77;4.32;;;;;;;5.88;100.00;100757.97;6176765;23;20410;-91
2022/11/24 08:54:47;;;;;;;11.50;4.20;;;;;;;5.84;100.00;100744.91;6139979;23;20009;-91
2022/11/24 08:57:12;;;;;;;12.25;4.22;;;;;;;5.91;100.00;100757.88;6154310;23;20193;-91
2022/11/24 08:59:38;;;;;;;13.32;3.72;;;;;;;5.94;100.00;100756.97;6154848;23;20048;-90
2022/11/24 09:02:03;;;;;;;15.80;4.28;;;;;;;6.03;100.00;100776.91;6130883;23;20389;-92
2022/11/24 09:04:28;;;;;;;13.63;4.43;;;;;;;6.03;100.00;100772.50;6157865;23;20012;-91
2022/11/24 09:06:53;;;;;;;13.18;3.80;;;;;;;6.10;100.00;100771.34;6154228;23;20100;-92
2022/11/24 09:09:19;;;;;;;13.95;3.83;;;;;;;6.07;100.00;100770.63;6153294;23;20470;-93
2022/11/24 09:11:44;;;;;;;16.58;4.38;;;;;;;6.06;100.00;100769.75;6152417;23;20001;-92
2022/11/24 09:14:09;;;;;;;13.32;3.75;;;;;;;6.13;100.00;100771.25;6153379;23;20047;-93
2022/11/24 09:16:35;;;;;;;11.52;4.00;;;;;;;6.21;100.00;100779.78;6126803;23;20001;-93
2022/11/24 09:19:02;;;;;;;10.93;3.83;;;;;;;6.23;100.00;100782.41;6158895;23;19990;-93
2022/11/24 09:21:29;;;;;;;13.52;4.70;;;;;;;6.28;100.00;100791.03;6156701;23;20005;-91
2022/11/24 09:23:54;;;;;;;13.38;4.70;;;;;;;6.32;100.00;100787.38;6159738;23;20005;-94
2022/11/24 09:26:28;;;;;;;13.43;4.63;;;;;;;6.39;100.00;100798.59;6166492;23;20060;-93
2022/11/24 09:28:55;;;;;;;12.25;5.28;;;;;;;6.41;100.00;100800.28;6157100;23;20009;-93
2022/11/24 09:31:23;;;;;;;19.80;4.95;;;;;;;6.49;100.00;100808.81;6156663;23;20009;-93
2022/11/24 09:33:49;;;;;;;13.50;4.22;;;;;;;6.48;100.00;100804.44;6153242;23;20002;-92
2022/11/24 09:36:14;;;;;;;16.83;4.90;;;;;;;6.48;100.00;100799.16;6153303;23;20001;-96
2022/11/24 09:38:40;;;;;;;15.10;4.10;;;;;;;6.56;100.00;100812.09;6156701;23;20009;-94
2022/11/24 09:41:27;;;;;;;16.58;4.78;;;;;;;6.58;100.00;100818.19;6155108;23;20488;-90
2022/11/24 09:44:18;;;;;;;19.50;5.28;;;;;;;6.56;100.00;100811.22;6151912;23;20324;-89
2022/11/24 09:47:08;;;;;;;13.82;4.85;;;;;;;6.58;100.00;100826.13;6152983;23;20005;-91
2022/11/24 09:49:42;;;;;;;14.02;4.05;;;;;;;6.70;100.00;100832.78;6155678;23;20541;-86
2022/11/24 09:52:12;;;;;;;14.23;4.63;;;;;;;6.71;100.00;100837.16;6154419;23;20025;-89
2022/11/24 09:54:50;;;;;;;18.10;4.60;;;;;;;6.80;100.00;100849.19;6148699;23;20009;-91
2022/11/24 09:57:18;;;;;;;14.43;4.57;;;;;;;6.82;100.00;100853.50;6177430;23;20017;-89
2022/11/24 09:59:44;;;;;;;15.38;4.80;;;;;;;6.90;100.00;100854.09;6177524;23;20001;-92
2022/11/24 10:02:11;;;;;;;14.10;4.80;;;;;;;6.92;100.00;100852.25;6175203;23;20016;-95
2022/11/24 10:04:45;;;;;;;15.57;4.45;;;;;;;6.91;100.00;100850.53;6151505;23;20021;-94
2022/11/24 10:07:26;;;;;;;20.40;4.38;;;;;;;6.99;100.00;100855.56;6174372;23;20104;-93
2022/11/24 10:10:01;;;;;;;17.13;4.50;;;;;;;7.05;100.00;100855.31;6130817;23;20387;-91
2022/11/24 10:13:03;;;;;;;14.95;4.30;;;;;;;7.13;100.00;100857.69;6155355;23;20423;-90
2022/11/24 10:15:41;;;;;;;14.25;4.60;;;;;;;7.15;100.00;100862.03;6156473;23;20503;-94
2022/11/24 10:18:15;;;;;;;15.05;4.32;;;;;;;7.20;100.00;100867.16;6130901;23;20009;-93
2022/11/24 10:20:59;;;;;;;15.90;5.03;;;;;;;7.21;100.00;100871.53;6157230;23;20009;-90
2022/11/24 10:23:57;;;;;;;17.85;4.32;;;;;;;7.23;100.00;100873.22;6157446;23;20016;-90
2022/11/24 10:26:37;;;;;;;12.85;4.05;;;;;;;7.19;100.00;100865.41;6156831;23;20009;-90
2022/11/24 10:29:25;;;;;;;17.52;4.32;;;;;;;7.34;100.00;100886.03;6154526;23;20056;-90
2022/11/24 10:31:55;;;;;;;16.05;5.35;;;;;;;7.42;100.00;100894.56;6155623;23;20080;-90
2022/11/24 10:34:36;;;;;;;20.20;5.05;;;;;;;7.47;100.00;100887.31;6155015;23;20009;-90
2022/11/24 10:37:10;;;;;;;14.40;4.80;;;;;;;7.55;100.00;100887.03;6153941;23;20033;-91
2022/11/24 10:39:53;;;;;;;17.00;4.70;;;;;;;7.55;100.00;100896.75;6153814;23;20021;-90
2022/11/24 10:42:38;;;;;;;11.00;4.07;;;;;;;7.54;100.00;100893.25;6155616;23;20045;-90
2022/11/24 10:45:13;;;;;;;15.65;4.28;;;;;;;7.61;100.00;100893.88;6128252;23;20014;-90
2022/11/24 10:47:40;;;;;;;10.13;3.63;;;;;;;7.59;100.00;100888.63;6156764;23;20687;-92
2022/11/24 10:50:20;;;;;;;14.77;4.43;;;;;;;7.69;100.00;100899.72;6154116;23;20024;-91
2022/11/24 10:53:21;;;;;;;15.07;4.15;;;;;;;7.74;100.00;100900.44;6128139;23;20052;-89
2022/11/24 10:55:55;;;;;;;11.00;4.25;;;;;;;7.81;100.00;100898.41;6154218;23;20029;-89
2022/11/24 10:58:38;;;;;;;16.58;6.40;;;;;;;7.87;100.00;100901.69;6156445;23;20036;-90
2022/11/24 11:01:13;;;;;;;14.45;4.40;;;;;;;7.87;100.00;100900.84;6163893;23;20007;-89
2022/11/24 11:03:58;;;;;;;18.30;4.45;;;;;;;7.88;100.00;100891.97;6158849;23;20085;-88
2022/11/24 11:06:28;;;;;;;12.38;3.85;;;;;;;7.81;100.00;100872.75;6133450;23;20017;-90
2022/11/24 11:09:06;;;;;;;17.55;3.60;;;;;;;7.87;100.00;100882.28;6163112;23;20061;-90
2022/11/24 11:11:33;;;;;;;14.70;3.78;;;;;;;7.83;100.00;100881.53;6165233;23;20010;-90
2022/11/24 11:14:01;;;;;;;14.13;4.55;;;;;;;7.88;100.00;100887.50;6165235;23;20037;-90
2022/11/24 11:16:39;;;;;;;15.50;4.53;;;;;;;7.92;100.00;100886.47;6175658;23;20033;-89
2022/11/24 11:19:33;;;;;;;13.48;3.75;;;;;;;7.91;100.00;100892.69;6174954;23;19993;-90
2022/11/24 11:22:00;;;;;;;;;;;;;;;7.93;100.00;100890.84;6166223;23;20064;-90
2022/11/24 11:24:27;;;;;;;16.63;4.53;;;;;;;7.98;100.00;100888.00;6157190;23;19912;-91
2022/11/24 11:27:01;;;;;;;16.95;4.25;;;;;;;8.01;100.00;100884.38;6129924;23;20009;-90
2022/11/24 11:29:28;;;;;;;18.63;4.68;;;;;;;8.01;100.00;100890.53;6130391;23;20059;-90